LIH weather

Lismore Helibase
Lismore, New South Wales, Australia

Public forecast

Using degrees Celsius for public forecast. Weather courtesy of forecast.io.

Closest aviation weather report (METAR) to Lismore Helibase

Closest report is Lismore Airport, 2.3 nm (4.2 km) SW. Retrieved 2019/10/17 21:00 UTC (29 minutes ago):

YLIS 172100Z AUTO 00000KT 9999 // NCD ///// Q1017

Closest aviation forecast (TAF) to Lismore Helibase

Closest forecast is Gold Coast Airport, 39.9 nm (73.9 km) NNE. Retrieved 2019/10/17 18:00 UTC (3 hours ago):

TAF YBCG 171721Z 1718/1818 17012KT 9999 SCT018 FM172100 15013KT 9999 FEW030 FM180200 08012KT 9999 FEW040 FM181400 33006KT 9999 SCT020